sensor_id;sensor_type;location;lat;lon;timestamp;pressure;altitude;pressure_sealevel;temperature
63009;BMP280;49099;28.428;-16.488;2022-10-16T00:01:30;98274.31;;;23.44
63009;BMP280;49099;28.428;-16.488;2022-10-16T00:03:59;98276.50;;;23.46
63009;BMP280;49099;28.428;-16.488;2022-10-16T00:06:31;98269.69;;;23.45
63009;BMP280;49099;28.428;-16.488;2022-10-16T00:08:58;98274.31;;;23.44
63009;BMP280;49099;28.428;-16.488;2022-10-16T00:11:34;98272.38;;;23.45
63009;BMP280;49099;28.428;-16.488;2022-10-16T00:14:14;98265.31;;;23.42
63009;BMP280;49099;28.428;-16.488;2022-10-16T00:16:42;98270.25;;;23.38
63009;BMP280;49099;28.428;-16.488;2022-10-16T00:19:11;98269.00;;;23.39
63009;BMP280;49099;28.428;-16.488;2022-10-16T00:21:39;98269.25;;;23.41
63009;BMP280;49099;28.428;-16.488;2022-10-16T00:24:07;98268.72;;;23.42
63009;BMP280;49099;28.428;-16.488;2022-10-16T00:26:36;98264.63;;;23.41
63009;BMP280;49099;28.428;-16.488;2022-10-16T00:29:04;98259.97;;;23.42
63009;BMP280;49099;28.428;-16.488;2022-10-16T00:31:32;98263.88;;;23.41
63009;BMP280;49099;28.428;-16.488;2022-10-16T00:34:00;98257.78;;;23.40
63009;BMP280;49099;28.428;-16.488;2022-10-16T00:36:27;98254.59;;;23.42
63009;BMP280;49099;28.428;-16.488;2022-10-16T00:38:56;98249.25;;;23.42
63009;BMP280;49099;28.428;-16.488;2022-10-16T00:41:30;98251.69;;;23.40
63009;BMP280;49099;28.428;-16.488;2022-10-16T00:43:59;98249.00;;;23.40
63009;BMP280;49099;28.428;-16.488;2022-10-16T00:46:37;98255.59;;;23.39
63009;BMP280;49099;28.428;-16.488;2022-10-16T00:49:08;98255.41;;;23.37
63009;BMP280;49099;28.428;-16.488;2022-10-16T00:51:38;98245.44;;;23.32
63009;BMP280;49099;28.428;-16.488;2022-10-16T00:54:26;98248.94;;;23.27
63009;BMP280;49099;28.428;-16.488;2022-10-16T00:56:55;98246.44;;;23.29
63009;BMP280;49099;28.428;-16.488;2022-10-16T00:59:29;98247.44;;;23.26
63009;BMP280;49099;28.428;-16.488;2022-10-16T01:01:57;98250.38;;;23.28
63009;BMP280;49099;28.428;-16.488;2022-10-16T01:04:26;98255.72;;;23.28
63009;BMP280;49099;28.428;-16.488;2022-10-16T01:28:57;98245.84;;;23.17
63009;BMP280;49099;28.428;-16.488;2022-10-16T01:31:29;98253.41;;;23.19
63009;BMP280;49099;28.428;-16.488;2022-10-16T01:34:13;98249.69;;;23.22
63009;BMP280;49099;28.428;-16.488;2022-10-16T01:36:56;98249.69;;;23.22
63009;BMP280;49099;28.428;-16.488;2022-10-16T01:39:29;98251.63;;;23.21
63009;BMP280;49099;28.428;-16.488;2022-10-16T01:42:05;98233.13;;;23.23
63009;BMP280;49099;28.428;-16.488;2022-10-16T01:44:34;98228.75;;;23.20
63009;BMP280;49099;28.428;-16.488;2022-10-16T01:47:04;98222.69;;;23.20
63009;BMP280;49099;28.428;-16.488;2022-10-16T01:49:34;98221.94;;;23.19
63009;BMP280;49099;28.428;-16.488;2022-10-16T01:52:06;98218.31;;;23.17
63009;BMP280;49099;28.428;-16.488;2022-10-16T01:54:37;98208.41;;;23.12
63009;BMP280;49099;28.428;-16.488;2022-10-16T01:57:06;98205.25;;;23.08
63009;BMP280;49099;28.428;-16.488;2022-10-16T01:59:38;98205.25;;;23.08
63009;BMP280;49099;28.428;-16.488;2022-10-16T02:02:08;98200.41;;;23.06
63009;BMP280;49099;28.428;-16.488;2022-10-16T02:04:40;98205.56;;;23.04
63009;BMP280;49099;28.428;-16.488;2022-10-16T02:07:10;98199.47;;;23.04
63009;BMP280;49099;28.428;-16.488;2022-10-16T02:09:38;98189.47;;;23.04
63009;BMP280;49099;28.428;-16.488;2022-10-16T02:12:30;98181.22;;;23.02
63009;BMP280;49099;28.428;-16.488;2022-10-16T02:14:59;98179.03;;;23.01
63009;BMP280;49099;28.428;-16.488;2022-10-16T02:17:26;98173.22;;;22.97
63009;BMP280;49099;28.428;-16.488;2022-10-16T02:19:55;98172.06;;;22.92
63009;BMP280;49099;28.428;-16.488;2022-10-16T02:22:30;98158.47;;;22.90
63009;BMP280;49099;28.428;-16.488;2022-10-16T02:25:03;98173.78;;;22.90
63009;BMP280;49099;28.428;-16.488;2022-10-16T02:27:36;98162.34;;;22.89
63009;BMP280;49099;28.428;-16.488;2022-10-16T02:30:35;98162.81;;;22.93
63009;BMP280;49099;28.428;-16.488;2022-10-16T02:33:02;98154.78;;;22.93
63009;BMP280;49099;28.428;-16.488;2022-10-16T02:35:31;98162.53;;;22.97
63009;BMP280;49099;28.428;-16.488;2022-10-16T02:37:59;98160.34;;;22.95
63009;BMP280;49099;28.428;-16.488;2022-10-16T02:40:27;98158.47;;;22.90
63009;BMP280;49099;28.428;-16.488;2022-10-16T02:42:54;98168.00;;;22.86
63009;BMP280;49099;28.428;-16.488;2022-10-16T02:45:23;98166.53;;;22.85
63009;BMP280;49099;28.428;-16.488;2022-10-16T02:47:50;98158.50;;;22.85
63009;BMP280;49099;28.428;-16.488;2022-10-16T02:50:18;98150.94;;;22.89
63009;BMP280;49099;28.428;-16.488;2022-10-16T02:52:45;98155.53;;;22.88
63009;BMP280;49099;28.428;-16.488;2022-10-16T02:55:12;98148.31;;;22.83
63009;BMP280;49099;28.428;-16.488;2022-10-16T02:57:39;98154.38;;;22.84
63009;BMP280;49099;28.428;-16.488;2022-10-16T03:00:09;98160.47;;;22.84
63009;BMP280;49099;28.428;-16.488;2022-10-16T03:02:36;98159.97;;;22.86
63009;BMP280;49099;28.428;-16.488;2022-10-16T03:05:04;98160.16;;;22.88
63009;BMP280;49099;28.428;-16.488;2022-10-16T03:07:31;98155.34;;;22.86
63009;BMP280;49099;28.428;-16.488;2022-10-16T03:09:58;98153.41;;;22.87
63009;BMP280;49099;28.428;-16.488;2022-10-16T03:12:27;98142.69;;;22.87
63009;BMP280;49099;28.428;-16.488;2022-10-16T03:14:55;98143.66;;;22.84
63009;BMP280;49099;28.428;-16.488;2022-10-16T03:17:24;98139.09;;;22.79
63009;BMP280;49099;28.428;-16.488;2022-10-16T03:19:51;98150.56;;;22.74
63009;BMP280;49099;28.428;-16.488;2022-10-16T03:22:19;98148.63;;;22.74
63009;BMP280;49099;28.428;-16.488;2022-10-16T03:24:46;98152.50;;;22.73
63009;BMP280;49099;28.428;-16.488;2022-10-16T03:27:13;98142.53;;;22.74
63009;BMP280;49099;28.428;-16.488;2022-10-16T03:29:40;98135.97;;;22.75
63009;BMP280;49099;28.428;-16.488;2022-10-16T03:32:07;98139.88;;;22.74
63009;BMP280;49099;28.428;-16.488;2022-10-16T03:34:34;98136.41;;;22.79
63009;BMP280;49099;28.428;-16.488;2022-10-16T03:37:02;98137.38;;;22.81
63009;BMP280;49099;28.428;-16.488;2022-10-16T03:39:29;98127.84;;;22.80
63009;BMP280;49099;28.428;-16.488;2022-10-16T03:41:56;98129.31;;;22.81
63009;BMP280;49099;28.428;-16.488;2022-10-16T03:44:23;98128.13;;;22.82
63009;BMP280;49099;28.428;-16.488;2022-10-16T03:46:50;98122.25;;;22.84
63009;BMP280;49099;28.428;-16.488;2022-10-16T03:49:17;98128.56;;;22.86
63009;BMP280;49099;28.428;-16.488;2022-10-16T03:51:44;98118.31;;;22.85
63009;BMP280;49099;28.428;-16.488;2022-10-16T03:54:11;98122.25;;;22.84
63009;BMP280;49099;28.428;-16.488;2022-10-16T03:56:39;98118.31;;;22.85
63009;BMP280;49099;28.428;-16.488;2022-10-16T03:59:06;98111.97;;;22.88
63009;BMP280;49099;28.428;-16.488;2022-10-16T04:01:33;98114.63;;;22.88
63009;BMP280;49099;28.428;-16.488;2022-10-16T04:04:00;98111.97;;;22.88
63009;BMP280;49099;28.428;-16.488;2022-10-16T04:06:27;98111.22;;;22.87
63009;BMP280;49099;28.428;-16.488;2022-10-16T04:08:54;98111.03;;;22.85
63009;BMP280;49099;28.428;-16.488;2022-10-16T04:11:21;98104.72;;;22.83
63009;BMP280;49099;28.428;-16.488;2022-10-16T04:13:48;98109.38;;;22.82
63009;BMP280;49099;28.428;-16.488;2022-10-16T04:16:16;98106.44;;;22.80
63009;BMP280;49099;28.428;-16.488;2022-10-16T04:18:43;98102.81;;;22.78
63009;BMP280;49099;28.428;-16.488;2022-10-16T04:21:10;98099.44;;;22.77
63009;BMP280;49099;28.428;-16.488;2022-10-16T04:23:37;98098.94;;;22.79
63009;BMP280;49099;28.428;-16.488;2022-10-16T04:26:05;98091.63;;;22.79
63009;BMP280;49099;28.428;-16.488;2022-10-16T04:28:32;98088.22;;;22.79
63009;BMP280;49099;28.428;-16.488;2022-10-16T04:31:00;98094.59;;;22.76
63009;BMP280;49099;28.428;-16.488;2022-10-16T04:33:27;98097.97;;;22.76
63009;BMP280;49099;28.428;-16.488;2022-10-16T04:35:58;98090.66;;;22.77
63009;BMP280;49099;28.428;-16.488;2022-10-16T04:38:26;98091.91;;;22.76
63009;BMP280;49099;28.428;-16.488;2022-10-16T04:40:53;98105.06;;;22.74
63009;BMP280;49099;28.428;-16.488;2022-10-16T04:43:20;98102.66;;;22.70
63009;BMP280;49099;28.428;-16.488;2022-10-16T04:45:48;98105.81;;;22.69
63009;BMP280;49099;28.428;-16.488;2022-10-16T04:48:18;98102.72;;;22.65
63009;BMP280;49099;28.428;-16.488;2022-10-16T04:50:45;98108.41;;;22.56
63009;BMP280;49099;28.428;-16.488;2022-10-16T04:53:19;98112.88;;;22.48
63009;BMP280;49099;28.428;-16.488;2022-10-16T04:55:46;98109.50;;;22.41
63009;BMP280;49099;28.428;-16.488;2022-10-16T04:58:14;98114.63;;;22.39
63009;BMP280;49099;28.428;-16.488;2022-10-16T05:00:41;98122.00;;;22.33
63009;BMP280;49099;28.428;-16.488;2022-10-16T05:03:08;98121.06;;;22.25
63009;BMP280;49099;28.428;-16.488;2022-10-16T05:05:36;98118.22;;;22.18
63009;BMP280;49099;28.428;-16.488;2022-10-16T05:08:03;98110.22;;;22.12
63009;BMP280;49099;28.428;-16.488;2022-10-16T05:10:30;98109.56;;;22.06
63009;BMP280;49099;28.428;-16.488;2022-10-16T05:12:58;98112.22;;;22.06
63009;BMP280;49099;28.428;-16.488;2022-10-16T05:15:25;98112.00;;;22.04
63009;BMP280;49099;28.428;-16.488;2022-10-16T05:17:53;98116.88;;;22.00
63009;BMP280;49099;28.428;-16.488;2022-10-16T05:20:22;98126.88;;;21.94
63009;BMP280;49099;28.428;-16.488;2022-10-16T05:22:49;98123.53;;;21.88
63009;BMP280;49099;28.428;-16.488;2022-10-16T05:25:16;98136.19;;;21.88
63009;BMP280;49099;28.428;-16.488;2022-10-16T05:27:47;98133.50;;;21.88
63009;BMP280;49099;28.428;-16.488;2022-10-16T05:30:18;98130.84;;;21.82
63009;BMP280;49099;28.428;-16.488;2022-10-16T05:32:47;98134.03;;;21.81
63009;BMP280;49099;28.428;-16.488;2022-10-16T05:35:15;98135.72;;;21.78
63009;BMP280;49099;28.428;-16.488;2022-10-16T05:37:43;98142.06;;;21.75
63009;BMP280;49099;28.428;-16.488;2022-10-16T05:40:10;98142.81;;;21.76
63009;BMP280;49099;28.428;-16.488;2022-10-16T05:42:39;98141.84;;;21.73
63009;BMP280;49099;28.428;-16.488;2022-10-16T05:45:08;98153.28;;;21.68
63009;BMP280;49099;28.428;-16.488;2022-10-16T05:47:36;98149.91;;;21.62
63009;BMP280;49099;28.428;-16.488;2022-10-16T05:50:04;98153.28;;;21.68
63009;BMP280;49099;28.428;-16.488;2022-10-16T05:52:31;98153.22;;;21.79
63009;BMP280;49099;28.428;-16.488;2022-10-16T05:54:58;98157.03;;;21.89
63009;BMP280;49099;28.428;-16.488;2022-10-16T05:57:25;98150.22;;;21.94
63009;BMP280;49099;28.428;-16.488;2022-10-16T05:59:53;98149.72;;;21.95
63009;BMP280;49099;28.428;-16.488;2022-10-16T06:02:20;98149.47;;;21.99
63009;BMP280;49099;28.428;-16.488;2022-10-16T06:04:47;98146.75;;;22.04
63009;BMP280;49099;28.428;-16.488;2022-10-16T06:07:14;98145.03;;;22.07
63009;BMP280;49099;28.428;-16.488;2022-10-16T06:09:41;98152.56;;;22.08
63009;BMP280;49099;28.428;-16.488;2022-10-16T06:12:09;98151.56;;;22.11
63009;BMP280;49099;28.428;-16.488;2022-10-16T06:14:36;98155.94;;;22.14
63009;BMP280;49099;28.428;-16.488;2022-10-16T06:17:03;98157.84;;;22.19
63009;BMP280;49099;28.428;-16.488;2022-10-16T06:19:30;98152.50;;;22.19
63009;BMP280;49099;28.428;-16.488;2022-10-16T06:21:58;98147.88;;;22.20
63009;BMP280;49099;28.428;-16.488;2022-10-16T06:24:25;98148.56;;;22.20
63009;BMP280;49099;28.428;-16.488;2022-10-16T06:26:52;98148.34;;;22.18
63009;BMP280;49099;28.428;-16.488;2022-10-16T06:29:19;98154.44;;;22.19
63009;BMP280;49099;28.428;-16.488;2022-10-16T06:31:47;98155.41;;;22.21
63009;BMP280;49099;28.428;-16.488;2022-10-16T06:34:14;98150.78;;;22.22
63009;BMP280;49099;28.428;-16.488;2022-10-16T06:36:41;98161.00;;;22.23
63009;BMP280;49099;28.428;-16.488;2022-10-16T06:39:10;98155.84;;;22.25
63009;BMP280;49099;28.428;-16.488;2022-10-16T06:41:37;98149.75;;;22.25
63009;BMP280;49099;28.428;-16.488;2022-10-16T06:44:05;98143.19;;;22.26
63009;BMP280;49099;28.428;-16.488;2022-10-16T06:46:34;98151.97;;;22.26
63009;BMP280;49099;28.428;-16.488;2022-10-16T06:49:01;98155.09;;;22.25
63009;BMP280;49099;28.428;-16.488;2022-10-16T06:51:28;98157.31;;;22.26
63009;BMP280;49099;28.428;-16.488;2022-10-16T06:53:56;98154.84;;;22.28
63009;BMP280;49099;28.428;-16.488;2022-10-16T06:56:30;98149.00;;;22.30
63009;BMP280;49099;28.428;-16.488;2022-10-16T06:58:58;98149.94;;;22.32
63009;BMP280;49099;28.428;-16.488;2022-10-16T07:01:26;98156.53;;;22.31
63009;BMP280;49099;28.428;-16.488;2022-10-16T07:03:53;98156.06;;;22.27
63009;BMP280;49099;28.428;-16.488;2022-10-16T07:06:22;98161.19;;;22.25
63009;BMP280;49099;28.428;-16.488;2022-10-16T07:08:50;98159.75;;;22.24
63009;BMP280;49099;28.428;-16.488;2022-10-16T07:11:20;98160.47;;;22.25
63009;BMP280;49099;28.428;-16.488;2022-10-16T07:13:49;98161.19;;;22.25
63009;BMP280;49099;28.428;-16.488;2022-10-16T07:16:24;98162.66;;;22.26
63009;BMP280;49099;28.428;-16.488;2022-10-16T07:18:55;98158.72;;;22.27
63009;BMP280;49099;28.428;-16.488;2022-10-16T07:21:29;98163.41;;;22.27
63009;BMP280;49099;28.428;-16.488;2022-10-16T07:23:59;98173.63;;;22.23
63009;BMP280;49099;28.428;-16.488;2022-10-16T07:26:29;98169.97;;;22.20
63009;BMP280;49099;28.428;-16.488;2022-10-16T07:28:57;98174.41;;;22.18
63009;BMP280;49099;28.428;-16.488;2022-10-16T07:31:25;98173.66;;;22.17
63009;BMP280;49099;28.428;-16.488;2022-10-16T07:33:53;98173.47;;;22.15
63009;BMP280;49099;28.428;-16.488;2022-10-16T07:36:21;98176.34;;;22.12
63009;BMP280;49099;28.428;-16.488;2022-10-16T07:38:48;98185.84;;;22.13
63009;BMP280;49099;28.428;-16.488;2022-10-16T07:41:20;98174.66;;;22.14
63009;BMP280;49099;28.428;-16.488;2022-10-16T07:43:49;98187.28;;;22.19
63009;BMP280;49099;28.428;-16.488;2022-10-16T07:46:19;98180.66;;;22.26
63009;BMP280;49099;28.428;-16.488;2022-10-16T07:48:47;98181.31;;;22.32
63009;BMP280;49099;28.428;-16.488;2022-10-16T07:51:17;98192.22;;;22.39
63009;BMP280;49099;28.428;-16.488;2022-10-16T07:53:45;98191.69;;;22.46
63009;BMP280;49099;28.428;-16.488;2022-10-16T07:56:13;98194.34;;;22.52
63009;BMP280;49099;28.428;-16.488;2022-10-16T07:58:41;98199.41;;;22.56
63009;BMP280;49099;28.428;-16.488;2022-10-16T08:01:14;98193.31;;;22.61
63009;BMP280;49099;28.428;-16.488;2022-10-16T08:03:43;98195.19;;;22.66
63009;BMP280;49099;28.428;-16.488;2022-10-16T08:06:10;98203.66;;;22.70
63009;BMP280;49099;28.428;-16.488;2022-10-16T08:08:37;98202.69;;;22.73
63009;BMP280;49099;28.428;-16.488;2022-10-16T08:11:04;98210.94;;;22.75
63009;BMP280;49099;28.428;-16.488;2022-10-16T08:13:32;98213.84;;;22.77
63009;BMP280;49099;28.428;-16.488;2022-10-16T08:15:59;98213.34;;;22.78
63009;BMP280;49099;28.428;-16.488;2022-10-16T08:18:26;98222.09;;;22.79
63009;BMP280;49099;28.428;-16.488;2022-10-16T08:20:58;98226.47;;;22.82
63009;BMP280;49099;28.428;-16.488;2022-10-16T08:23:27;98231.31;;;22.83
63009;BMP280;49099;28.428;-16.488;2022-10-16T08:25:55;98233.75;;;22.87
63009;BMP280;49099;28.428;-16.488;2022-10-16T08:28:23;98238.06;;;22.90
63009;BMP280;49099;28.428;-16.488;2022-10-16T08:30:50;98238.28;;;22.92
63009;BMP280;49099;28.428;-16.488;2022-10-16T08:33:17;98245.09;;;22.93
63009;BMP280;49099;28.428;-16.488;2022-10-16T08:35:52;98256.75;;;22.95
63009;BMP280;49099;28.428;-16.488;2022-10-16T08:38:20;98264.50;;;22.99
63009;BMP280;49099;28.428;-16.488;2022-10-16T08:40:48;98269.09;;;23.04
63009;BMP280;49099;28.428;-16.488;2022-10-16T08:44:07;98277.09;;;23.09
63009;BMP280;49099;28.428;-16.488;2022-10-16T08:49:11;98282.34;;;23.20
63009;BMP280;49099;28.428;-16.488;2022-10-16T08:51:40;98283.53;;;23.25
63009;BMP280;49099;28.428;-16.488;2022-10-16T08:55:01;98288.13;;;23.30
63009;BMP280;49099;28.428;-16.488;2022-10-16T08:57:22;98289.06;;;23.32
63009;BMP280;49099;28.428;-16.488;2022-10-16T08:59:52;98296.06;;;23.35
63009;BMP280;49099;28.428;-16.488;2022-10-16T09:02:26;98290.97;;;23.37
63009;BMP280;49099;28.428;-16.488;2022-10-16T09:16:23;98302.03;;;23.52
63009;BMP280;49099;28.428;-16.488;2022-10-16T09:19:05;98307.09;;;23.56
63009;BMP280;49099;28.428;-16.488;2022-10-16T09:21:40;98299.25;;;23.58
63009;BMP280;49099;28.428;-16.488;2022-10-16T09:24:19;98303.63;;;23.61
63009;BMP280;49099;28.428;-16.488;2022-10-16T09:26:51;98304.88;;;23.60
63009;BMP280;49099;28.428;-16.488;2022-10-16T09:29:20;98299.72;;;23.62
63009;BMP280;49099;28.428;-16.488;2022-10-16T09:31:48;98306.03;;;23.64
63009;BMP280;49099;28.428;-16.488;2022-10-16T09:34:33;98304.78;;;23.65
63009;BMP280;49099;28.428;-16.488;2022-10-16T09:37:04;98310.16;;;23.65
63009;BMP280;49099;28.428;-16.488;2022-10-16T09:39:47;98308.97;;;23.61
63009;BMP280;49099;28.428;-16.488;2022-10-16T09:42:34;98308.59;;;23.51
63009;BMP280;49099;28.428;-16.488;2022-10-16T09:45:03;98308.44;;;23.44
63009;BMP280;49099;28.428;-16.488;2022-10-16T09:47:31;98312.56;;;23.45
63009;BMP280;49099;28.428;-16.488;2022-10-16T09:50:01;98312.56;;;23.45
63009;BMP280;49099;28.428;-16.488;2022-10-16T09:52:31;98314.25;;;23.48
63009;BMP280;49099;28.428;-16.488;2022-10-16T09:55:09;98308.09;;;23.53
63009;BMP280;49099;28.428;-16.488;2022-10-16T09:57:49;98312.47;;;23.56
63009;BMP280;49099;28.428;-16.488;2022-10-16T10:00:17;98319.06;;;23.55
63009;BMP280;49099;28.428;-16.488;2022-10-16T10:02:45;98328.53;;;23.56
63009;BMP280;49099;28.428;-16.488;2022-10-16T10:05:26;98327.53;;;23.59
63009;BMP280;49099;28.428;-16.488;2022-10-16T10:07:59;98340.88;;;23.64
63009;BMP280;49099;28.428;-16.488;2022-10-16T10:10:29;98339.19;;;23.67
63009;BMP280;49099;28.428;-16.488;2022-10-16T10:12:57;98337.91;;;23.68
63009;BMP280;49099;28.428;-16.488;2022-10-16T10:15:25;98345.69;;;23.71
63009;BMP280;49099;28.428;-16.488;2022-10-16T10:17:56;98339.53;;;23.76
63009;BMP280;49099;28.428;-16.488;2022-10-16T10:20:29;98344.84;;;23.82
63009;BMP280;49099;28.428;-16.488;2022-10-16T10:22:58;98356.81;;;23.81
63009;BMP280;49099;28.428;-16.488;2022-10-16T10:38:49;98362.31;;;23.88
63009;BMP280;49099;28.428;-16.488;2022-10-16T10:50:17;98359.59;;;23.70
63009;BMP280;49099;28.428;-16.488;2022-10-16T10:52:58;98360.94;;;23.58
63009;BMP280;49099;28.428;-16.488;2022-10-16T11:01:39;98353.34;;;23.62
63009;BMP280;49099;28.428;-16.488;2022-10-16T11:04:53;98350.75;;;23.75
63009;BMP280;49099;28.428;-16.488;2022-10-16T11:07:05;98351.16;;;23.60
63009;BMP280;49099;28.428;-16.488;2022-10-16T11:09:38;98345.09;;;23.60
63009;BMP280;49099;28.428;-16.488;2022-10-16T11:12:12;98347.88;;;23.73
63009;BMP280;49099;28.428;-16.488;2022-10-16T11:14:56;98347.75;;;23.84
63009;BMP280;49099;28.428;-16.488;2022-10-16T11:17:39;98342.81;;;23.88
63009;BMP280;49099;28.428;-16.488;2022-10-16T11:20:20;98338.69;;;23.87
63009;BMP280;49099;28.428;-16.488;2022-10-16T11:22:53;98341.38;;;23.87
63009;BMP280;49099;28.428;-16.488;2022-10-16T11:25:22;98342.59;;;23.86
63009;BMP280;49099;28.428;-16.488;2022-10-16T11:30:49;98343.25;;;23.92
63009;BMP280;49099;28.428;-16.488;2022-10-16T11:36:08;98338.59;;;23.92
63009;BMP280;49099;28.428;-16.488;2022-10-16T11:38:47;98343.00;;;23.95
63009;BMP280;49099;28.428;-16.488;2022-10-16T11:44:16;98340.25;;;24.01
63009;BMP280;49099;28.428;-16.488;2022-10-16T11:46:58;98334.78;;;24.06
63009;BMP280;49099;28.428;-16.488;2022-10-16T11:49:53;98333.06;;;24.09
63009;BMP280;49099;28.428;-16.488;2022-10-16T11:52:46;98329.22;;;24.04
63009;BMP280;49099;28.428;-16.488;2022-10-16T11:55:24;98334.88;;;24.01
63009;BMP280;49099;28.428;-16.488;2022-10-16T11:57:58;98330.44;;;24.03
63009;BMP280;49099;28.428;-16.488;2022-10-16T12:00:55;98322.66;;;24.00
63009;BMP280;49099;28.428;-16.488;2022-10-16T12:06:35;98327.03;;;24.03
63009;BMP280;49099;28.428;-16.488;2022-10-16T12:09:04;98327.03;;;24.03
63009;BMP280;49099;28.428;-16.488;2022-10-16T12:11:35;98334.06;;;24.06
63009;BMP280;49099;28.428;-16.488;2022-10-16T12:16:51;98334.91;;;24.19
63009;BMP280;49099;28.428;-16.488;2022-10-16T12:19:20;98337.47;;;24.25
63009;BMP280;49099;28.428;-16.488;2022-10-16T12:21:49;98323.84;;;24.23
63009;BMP280;49099;28.428;-16.488;2022-10-16T12:24:43;98329.34;;;24.30
63009;BMP280;49099;28.428;-16.488;2022-10-16T12:27:28;98321.38;;;24.25
63009;BMP280;49099;28.428;-16.488;2022-10-16T12:30:00;98305.56;;;24.21
63009;BMP280;49099;28.428;-16.488;2022-10-16T12:32:35;98310.63;;;24.25
63009;BMP280;49099;28.428;-16.488;2022-10-16T12:35:25;98302.19;;;24.34
63009;BMP280;49099;28.428;-16.488;2022-10-16T12:37:53;98302.16;;;24.21
63009;BMP280;49099;28.428;-16.488;2022-10-16T12:40:30;98301.06;;;24.11
63009;BMP280;49099;28.428;-16.488;2022-10-16T12:42:58;98298.75;;;24.02
63009;BMP280;49099;28.428;-16.488;2022-10-16T12:45:29;98287.00;;;24.05
63009;BMP280;49099;28.428;-16.488;2022-10-16T12:48:00;98288.88;;;24.10
63009;BMP280;49099;28.428;-16.488;2022-10-16T12:50:37;98281.22;;;24.19
63009;BMP280;49099;28.428;-16.488;2022-10-16T12:56:16;98267.06;;;24.19
63009;BMP280;49099;28.428;-16.488;2022-10-16T12:59:09;98270.47;;;24.01
63009;BMP280;49099;28.428;-16.488;2022-10-16T13:10:50;98267.53;;;24.36
63009;BMP280;49099;28.428;-16.488;2022-10-16T13:16:05;98264.25;;;24.43
63009;BMP280;49099;28.428;-16.488;2022-10-16T13:24:12;98257.91;;;24.59
63009;BMP280;49099;28.428;-16.488;2022-10-16T13:27:17;98271.13;;;24.57
63009;BMP280;49099;28.428;-16.488;2022-10-16T13:29:35;98267.81;;;24.51
63009;BMP280;49099;28.428;-16.488;2022-10-16T13:32:09;98264.91;;;24.49
63009;BMP280;49099;28.428;-16.488;2022-10-16T13:34:44;98261.78;;;24.45
63009;BMP280;49099;28.428;-16.488;2022-10-16T13:37:20;98255.81;;;24.52
63009;BMP280;49099;28.428;-16.488;2022-10-16T13:39:48;98261.66;;;24.69
63009;BMP280;49099;28.428;-16.488;2022-10-16T13:42:25;98246.91;;;24.88
63009;BMP280;49099;28.428;-16.488;2022-10-16T13:44:55;98244.97;;;25.02
63009;BMP280;49099;28.428;-16.488;2022-10-16T13:47:25;98245.91;;;25.04
63009;BMP280;49099;28.428;-16.488;2022-10-16T13:50:04;98241.75;;;25.16
63009;BMP280;49099;28.428;-16.488;2022-10-16T13:52:32;98240.22;;;25.21
63009;BMP280;49099;28.428;-16.488;2022-10-16T13:54:59;98235.25;;;25.25
63009;BMP280;49099;28.428;-16.488;2022-10-16T13:57:28;98234.41;;;25.43
63009;BMP280;49099;28.428;-16.488;2022-10-16T13:59:55;98230.66;;;25.46
63009;BMP280;49099;28.428;-16.488;2022-10-16T14:02:30;98228.31;;;25.42
63009;BMP280;49099;28.428;-16.488;2022-10-16T14:04:59;98230.66;;;25.46
63009;BMP280;49099;28.428;-16.488;2022-10-16T14:07:28;98224.66;;;25.53
63009;BMP280;49099;28.428;-16.488;2022-10-16T14:09:56;98224.47;;;25.51
63009;BMP280;49099;28.428;-16.488;2022-10-16T14:12:27;98231.09;;;25.37
63009;BMP280;49099;28.428;-16.488;2022-10-16T14:14:57;98234.22;;;25.28
63009;BMP280;49099;28.428;-16.488;2022-10-16T14:17:30;98231.13;;;25.24
63009;BMP280;49099;28.428;-16.488;2022-10-16T14:19:59;98221.19;;;25.19
63009;BMP280;49099;28.428;-16.488;2022-10-16T14:22:33;98231.63;;;25.22
63009;BMP280;49099;28.428;-16.488;2022-10-16T14:25:02;98226.97;;;25.23
63009;BMP280;49099;28.428;-16.488;2022-10-16T14:27:31;98233.91;;;25.18
63009;BMP280;49099;28.428;-16.488;2022-10-16T14:32:40;98231.31;;;25.26
63009;BMP280;49099;28.428;-16.488;2022-10-16T14:35:33;98233.97;;;25.39
63009;BMP280;49099;28.428;-16.488;2022-10-16T14:38:03;98227.19;;;25.38
63009;BMP280;49099;28.428;-16.488;2022-10-16T14:40:33;98226.94;;;25.49
63009;BMP280;49099;28.428;-16.488;2022-10-16T14:43:02;98232.00;;;25.52
63009;BMP280;49099;28.428;-16.488;2022-10-16T14:45:33;98229.41;;;25.60
63009;BMP280;49099;28.428;-16.488;2022-10-16T14:48:16;98227.44;;;25.60
63009;BMP280;49099;28.428;-16.488;2022-10-16T14:50:45;98234.16;;;25.67
63009;BMP280;49099;28.428;-16.488;2022-10-16T14:53:13;98225.91;;;25.65
63009;BMP280;49099;28.428;-16.488;2022-10-16T14:55:41;98219.44;;;25.81
63009;BMP280;49099;28.428;-16.488;2022-10-16T14:58:19;98211.34;;;25.81
63009;BMP280;49099;28.428;-16.488;2022-10-16T15:00:48;98226.22;;;25.82
63009;BMP280;49099;28.428;-16.488;2022-10-16T15:03:16;98223.97;;;25.73
63009;BMP280;49099;28.428;-16.488;2022-10-16T15:05:43;98221.53;;;25.75
63009;BMP280;49099;28.428;-16.488;2022-10-16T15:08:10;98221.56;;;25.82
63009;BMP280;49099;28.428;-16.488;2022-10-16T15:10:41;98214.41;;;25.85
63009;BMP280;49099;28.428;-16.488;2022-10-16T15:13:13;98221.53;;;25.96
63009;BMP280;49099;28.428;-16.488;2022-10-16T15:15:45;98224.31;;;26.03
63009;BMP280;49099;28.428;-16.488;2022-10-16T15:18:13;98218.91;;;26.03
63009;BMP280;49099;28.428;-16.488;2022-10-16T15:20:42;98227.81;;;25.98
63009;BMP280;49099;28.428;-16.488;2022-10-16T15:23:18;98220.75;;;26.08
63009;BMP280;49099;28.428;-16.488;2022-10-16T15:25:56;98235.75;;;26.17
63009;BMP280;49099;28.428;-16.488;2022-10-16T15:28:24;98236.00;;;26.26
63009;BMP280;49099;28.428;-16.488;2022-10-16T15:30:54;98234.63;;;26.33
63009;BMP280;49099;28.428;-16.488;2022-10-16T15:33:24;98238.41;;;26.37
63009;BMP280;49099;28.428;-16.488;2022-10-16T15:35:53;98230.09;;;26.48
63009;BMP280;49099;28.428;-16.488;2022-10-16T15:38:21;98226.03;;;26.62
63009;BMP280;49099;28.428;-16.488;2022-10-16T15:40:49;98235.66;;;26.50
63009;BMP280;49099;28.428;-16.488;2022-10-16T15:43:17;98229.25;;;26.33
63009;BMP280;49099;28.428;-16.488;2022-10-16T15:45:59;98232.78;;;26.48
63009;BMP280;49099;28.428;-16.488;2022-10-16T15:48:30;98234.88;;;26.42